sensor_id;sensor_type;location;lat;lon;timestamp;P1;durP1;ratioP1;P2;durP2;ratioP2
18021;SDS011;9136;48.822;7.966;2023-07-29T01:54:42;16.48;;;15.77;;
18021;SDS011;9136;48.822;7.966;2023-07-29T03:23:21;18.95;;;18.05;;
18021;SDS011;9136;48.822;7.966;2023-07-29T03:26:09;16.83;;;16.13;;
18021;SDS011;9136;48.822;7.966;2023-07-29T03:28:57;18.70;;;17.55;;
18021;SDS011;9136;48.822;7.966;2023-07-29T03:31:46;16.70;;;16.00;;
18021;SDS011;9136;48.822;7.966;2023-07-29T03:34:34;16.65;;;15.95;;
18021;SDS011;9136;48.822;7.966;2023-07-29T03:37:22;17.30;;;16.50;;
18021;SDS011;9136;48.822;7.966;2023-07-29T03:40:14;18.00;;;17.20;;
18021;SDS011;9136;48.822;7.966;2023-07-29T03:43:01;17.52;;;16.73;;
18021;SDS011;9136;48.822;7.966;2023-07-29T03:45:49;18.05;;;17.25;;
18021;SDS011;9136;48.822;7.966;2023-07-29T03:48:37;18.48;;;17.67;;
18021;SDS011;9136;48.822;7.966;2023-07-29T03:51:43;19.58;;;18.67;;
18021;SDS011;9136;48.822;7.966;2023-07-29T03:54:31;18.45;;;17.65;;
18021;SDS011;9136;48.822;7.966;2023-07-29T03:57:28;17.80;;;17.00;;
18021;SDS011;9136;48.822;7.966;2023-07-29T04:00:20;17.23;;;16.45;;
18021;SDS011;9136;48.822;7.966;2023-07-29T04:03:10;20.67;;;19.67;;
18021;SDS011;9136;48.822;7.966;2023-07-29T04:06:02;17.92;;;17.13;;
18021;SDS011;9136;48.822;7.966;2023-07-29T04:08:59;18.85;;;18.02;;
18021;SDS011;9136;48.822;7.966;2023-07-29T04:11:52;18.33;;;17.52;;
18021;SDS011;9136;48.822;7.966;2023-07-29T04:14:46;17.92;;;17.13;;
18021;SDS011;9136;48.822;7.966;2023-07-29T04:17:36;16.58;;;15.77;;
18021;SDS011;9136;48.822;7.966;2023-07-29T04:20:24;18.67;;;17.88;;
18021;SDS011;9136;48.822;7.966;2023-07-29T04:23:14;18.40;;;17.60;;
18021;SDS011;9136;48.822;7.966;2023-07-29T04:26:03;18.08;;;17.27;;
18021;SDS011;9136;48.822;7.966;2023-07-29T04:28:51;17.33;;;16.52;;
18021;SDS011;9136;48.822;7.966;2023-07-29T04:31:41;18.38;;;17.58;;
18021;SDS011;9136;48.822;7.966;2023-07-29T04:34:30;18.40;;;17.27;;
18021;SDS011;9136;48.822;7.966;2023-07-29T04:37:18;19.30;;;18.50;;
18021;SDS011;9136;48.822;7.966;2023-07-29T04:40:10;17.92;;;17.13;;
18021;SDS011;9136;48.822;7.966;2023-07-29T04:43:00;18.77;;;17.88;;
18021;SDS011;9136;48.822;7.966;2023-07-29T04:45:48;18.25;;;17.42;;
18021;SDS011;9136;48.822;7.966;2023-07-29T04:48:37;19.35;;;18.45;;
18021;SDS011;9136;48.822;7.966;2023-07-29T04:51:25;18.40;;;17.50;;
18021;SDS011;9136;48.822;7.966;2023-07-29T04:54:14;17.88;;;17.08;;
18021;SDS011;9136;48.822;7.966;2023-07-29T04:57:02;19.23;;;18.42;;
18021;SDS011;9136;48.822;7.966;2023-07-29T04:59:51;17.77;;;16.98;;
18021;SDS011;9136;48.822;7.966;2023-07-29T05:02:40;18.52;;;17.67;;
18021;SDS011;9136;48.822;7.966;2023-07-29T05:05:32;19.08;;;18.27;;
18021;SDS011;9136;48.822;7.966;2023-07-29T05:08:20;19.92;;;19.02;;
18021;SDS011;9136;48.822;7.966;2023-07-29T05:11:10;19.92;;;19.02;;
18021;SDS011;9136;48.822;7.966;2023-07-29T05:14:02;19.58;;;18.67;;
18021;SDS011;9136;48.822;7.966;2023-07-29T05:16:52;19.95;;;19.05;;
18021;SDS011;9136;48.822;7.966;2023-07-29T05:19:40;19.50;;;18.50;;
18021;SDS011;9136;48.822;7.966;2023-07-29T05:22:29;21.00;;;20.10;;
18021;SDS011;9136;48.822;7.966;2023-07-29T05:25:19;18.73;;;17.92;;
18021;SDS011;9136;48.822;7.966;2023-07-29T05:28:08;18.48;;;17.65;;
18021;SDS011;9136;48.822;7.966;2023-07-29T05:31:00;18.25;;;17.15;;
18021;SDS011;9136;48.822;7.966;2023-07-29T05:33:48;18.02;;;17.23;;
18021;SDS011;9136;48.822;7.966;2023-07-29T05:36:48;19.95;;;18.50;;
18021;SDS011;9136;48.822;7.966;2023-07-29T05:39:38;18.77;;;17.98;;
18021;SDS011;9136;48.822;7.966;2023-07-29T05:42:28;18.98;;;18.17;;
18021;SDS011;9136;48.822;7.966;2023-07-29T05:45:16;20.67;;;19.77;;
18021;SDS011;9136;48.822;7.966;2023-07-29T05:48:06;18.77;;;17.88;;
18021;SDS011;9136;48.822;7.966;2023-07-29T05:50:53;18.10;;;17.30;;
18021;SDS011;9136;48.822;7.966;2023-07-29T05:53:43;18.58;;;17.77;;
18021;SDS011;9136;48.822;7.966;2023-07-29T05:56:33;17.42;;;16.63;;
18021;SDS011;9136;48.822;7.966;2023-07-29T05:59:23;20.00;;;19.00;;
18021;SDS011;9136;48.822;7.966;2023-07-29T06:02:16;16.88;;;16.17;;
18021;SDS011;9136;48.822;7.966;2023-07-29T06:05:10;19.85;;;18.95;;
18021;SDS011;9136;48.822;7.966;2023-07-29T06:08:00;19.80;;;18.90;;
18021;SDS011;9136;48.822;7.966;2023-07-29T06:10:53;18.45;;;17.65;;
18021;SDS011;9136;48.822;7.966;2023-07-29T06:13:43;18.83;;;17.92;;
18021;SDS011;9136;48.822;7.966;2023-07-29T06:16:38;18.70;;;17.85;;
18021;SDS011;9136;48.822;7.966;2023-07-29T06:20:25;18.13;;;17.33;;
18021;SDS011;9136;48.822;7.966;2023-07-29T06:23:41;17.98;;;16.98;;
18021;SDS011;9136;48.822;7.966;2023-07-29T06:26:39;17.42;;;16.63;;
18021;SDS011;9136;48.822;7.966;2023-07-29T06:29:34;19.15;;;18.25;;
18021;SDS011;9136;48.822;7.966;2023-07-29T06:32:27;18.33;;;17.52;;
18021;SDS011;9136;48.822;7.966;2023-07-29T06:35:18;17.85;;;16.95;;
18021;SDS011;9136;48.822;7.966;2023-07-29T06:38:08;18.73;;;17.83;;
18021;SDS011;9136;48.822;7.966;2023-07-29T06:41:03;17.88;;;17.08;;
18021;SDS011;9136;48.822;7.966;2023-07-29T06:43:51;17.88;;;17.08;;
18021;SDS011;9136;48.822;7.966;2023-07-29T06:46:43;20.23;;;19.13;;
18021;SDS011;9136;48.822;7.966;2023-07-29T06:49:31;18.35;;;17.55;;
18021;SDS011;9136;48.822;7.966;2023-07-29T06:52:29;18.02;;;17.13;;
18021;SDS011;9136;48.822;7.966;2023-07-29T06:55:19;18.13;;;17.33;;
18021;SDS011;9136;48.822;7.966;2023-07-29T06:58:17;18.48;;;17.67;;
18021;SDS011;9136;48.822;7.966;2023-07-29T07:01:08;18.45;;;17.65;;
18021;SDS011;9136;48.822;7.966;2023-07-29T07:04:05;17.85;;;17.05;;
18021;SDS011;9136;48.822;7.966;2023-07-29T07:07:06;19.05;;;18.17;;
18021;SDS011;9136;48.822;7.966;2023-07-29T07:09:59;18.85;;;18.02;;
18021;SDS011;9136;48.822;7.966;2023-07-29T07:12:50;18.83;;;17.65;;
18021;SDS011;9136;48.822;7.966;2023-07-29T07:15:38;19.23;;;18.23;;
18021;SDS011;9136;48.822;7.966;2023-07-29T07:18:26;20.20;;;19.30;;
18021;SDS011;9136;48.822;7.966;2023-07-29T07:21:20;19.42;;;18.52;;
18021;SDS011;9136;48.822;7.966;2023-07-29T07:24:11;18.50;;;17.60;;
18021;SDS011;9136;48.822;7.966;2023-07-29T07:27:19;19.48;;;18.58;;
18021;SDS011;9136;48.822;7.966;2023-07-29T07:30:07;19.27;;;18.48;;
18021;SDS011;9136;48.822;7.966;2023-07-29T07:32:57;18.23;;;17.42;;
18021;SDS011;9136;48.822;7.966;2023-07-29T07:35:49;20.70;;;19.35;;
18021;SDS011;9136;48.822;7.966;2023-07-29T07:39:01;21.05;;;20.15;;
18021;SDS011;9136;48.822;7.966;2023-07-29T07:42:35;20.08;;;19.17;;
18021;SDS011;9136;48.822;7.966;2023-07-29T07:45:38;19.85;;;18.95;;
18021;SDS011;9136;48.822;7.966;2023-07-29T07:48:27;19.48;;;18.60;;
18021;SDS011;9136;48.822;7.966;2023-07-29T07:51:27;19.25;;;18.35;;
18021;SDS011;9136;48.822;7.966;2023-07-29T07:54:55;20.17;;;19.27;;
18021;SDS011;9136;48.822;7.966;2023-07-29T07:57:48;18.05;;;17.15;;
18021;SDS011;9136;48.822;7.966;2023-07-29T08:00:57;19.52;;;18.52;;
18021;SDS011;9136;48.822;7.966;2023-07-29T08:04:23;17.20;;;16.40;;
18021;SDS011;9136;48.822;7.966;2023-07-29T08:07:31;18.98;;;18.17;;
18021;SDS011;9136;48.822;7.966;2023-07-29T08:10:24;17.90;;;17.10;;
18021;SDS011;9136;48.822;7.966;2023-07-29T08:13:13;18.40;;;17.60;;
18021;SDS011;9136;48.822;7.966;2023-07-29T08:16:17;18.73;;;17.92;;
18021;SDS011;9136;48.822;7.966;2023-07-29T08:19:13;16.77;;;16.08;;
18021;SDS011;9136;48.822;7.966;2023-07-29T08:22:28;19.33;;;18.45;;
18021;SDS011;9136;48.822;7.966;2023-07-29T08:25:32;15.63;;;14.93;;
18021;SDS011;9136;48.822;7.966;2023-07-29T08:28:20;18.20;;;17.40;;
18021;SDS011;9136;48.822;7.966;2023-07-29T08:31:08;19.70;;;18.80;;
18021;SDS011;9136;48.822;7.966;2023-07-29T08:33:56;17.75;;;16.95;;
18021;SDS011;9136;48.822;7.966;2023-07-29T08:36:43;17.85;;;17.05;;
18021;SDS011;9136;48.822;7.966;2023-07-29T08:39:31;18.67;;;17.55;;
18021;SDS011;9136;48.822;7.966;2023-07-29T08:42:25;17.90;;;17.10;;
18021;SDS011;9136;48.822;7.966;2023-07-29T08:45:29;16.35;;;15.65;;
18021;SDS011;9136;48.822;7.966;2023-07-29T08:48:29;17.55;;;16.75;;
18021;SDS011;9136;48.822;7.966;2023-07-29T08:51:21;18.15;;;17.35;;
18021;SDS011;9136;48.822;7.966;2023-07-29T08:54:15;17.75;;;16.98;;
18021;SDS011;9136;48.822;7.966;2023-07-29T08:57:04;17.75;;;16.95;;
18021;SDS011;9136;48.822;7.966;2023-07-29T08:59:58;18.35;;;17.55;;
18021;SDS011;9136;48.822;7.966;2023-07-29T09:02:52;18.35;;;17.55;;
18021;SDS011;9136;48.822;7.966;2023-07-29T09:05:52;17.33;;;16.58;;
18021;SDS011;9136;48.822;7.966;2023-07-29T09:08:41;17.85;;;17.05;;
18021;SDS011;9136;48.822;7.966;2023-07-29T09:11:30;18.08;;;17.27;;
18021;SDS011;9136;48.822;7.966;2023-07-29T09:14:21;18.70;;;17.90;;
18021;SDS011;9136;48.822;7.966;2023-07-29T09:17:12;17.63;;;16.85;;
18021;SDS011;9136;48.822;7.966;2023-07-29T09:20:46;18.52;;;17.73;;
18021;SDS011;9136;48.822;7.966;2023-07-29T09:23:49;18.25;;;17.45;;
18021;SDS011;9136;48.822;7.966;2023-07-29T09:31:07;17.73;;;16.92;;
18021;SDS011;9136;48.822;7.966;2023-07-29T09:49:39;17.60;;;16.73;;
18021;SDS011;9136;48.822;7.966;2023-07-29T10:01:14;16.13;;;15.43;;
18021;SDS011;9136;48.822;7.966;2023-07-29T10:09:04;15.82;;;15.13;;
18021;SDS011;9136;48.822;7.966;2023-07-29T10:15:30;15.23;;;14.55;;
18021;SDS011;9136;48.822;7.966;2023-07-29T10:19:42;15.50;;;14.80;;
18021;SDS011;9136;48.822;7.966;2023-07-29T10:55:43;15.30;;;14.63;;
18021;SDS011;9136;48.822;7.966;2023-07-29T10:58:56;14.35;;;13.75;;
18021;SDS011;9136;48.822;7.966;2023-07-29T11:02:12;14.98;;;14.32;;
18021;SDS011;9136;48.822;7.966;2023-07-29T11:05:15;13.45;;;12.85;;
18021;SDS011;9136;48.822;7.966;2023-07-29T11:08:51;14.18;;;13.57;;
18021;SDS011;9136;48.822;7.966;2023-07-29T11:11:50;12.73;;;12.23;;
18021;SDS011;9136;48.822;7.966;2023-07-29T11:14:42;13.43;;;12.80;;
18021;SDS011;9136;48.822;7.966;2023-07-29T11:17:50;13.43;;;12.82;;
18021;SDS011;9136;48.822;7.966;2023-07-29T11:20:45;12.77;;;12.18;;
18021;SDS011;9136;48.822;7.966;2023-07-29T11:25:20;12.73;;;12.23;;
18021;SDS011;9136;48.822;7.966;2023-07-29T11:27:28;12.27;;;11.77;;
18021;SDS011;9136;48.822;7.966;2023-07-29T11:30:39;13.57;;;12.98;;
18021;SDS011;9136;48.822;7.966;2023-07-29T11:33:29;12.57;;;12.07;;
18021;SDS011;9136;48.822;7.966;2023-07-29T11:36:23;12.10;;;11.60;;
18021;SDS011;9136;48.822;7.966;2023-07-29T11:39:26;12.27;;;11.73;;
18021;SDS011;9136;48.822;7.966;2023-07-29T11:42:15;12.50;;;11.90;;
18021;SDS011;9136;48.822;7.966;2023-07-29T11:45:13;12.70;;;12.20;;
18021;SDS011;9136;48.822;7.966;2023-07-29T11:48:11;12.15;;;11.65;;
18021;SDS011;9136;48.822;7.966;2023-07-29T11:51:07;12.00;;;11.50;;
18021;SDS011;9136;48.822;7.966;2023-07-29T11:54:13;11.35;;;10.85;;
18021;SDS011;9136;48.822;7.966;2023-07-29T11:57:09;11.98;;;11.48;;
18021;SDS011;9136;48.822;7.966;2023-07-29T12:03:22;12.32;;;11.73;;
18021;SDS011;9136;48.822;7.966;2023-07-29T12:06:27;11.48;;;10.98;;
18021;SDS011;9136;48.822;7.966;2023-07-29T12:09:42;11.40;;;10.90;;
18021;SDS011;9136;48.822;7.966;2023-07-29T12:12:43;10.30;;;9.90;;
18021;SDS011;9136;48.822;7.966;2023-07-29T12:19:03;11.40;;;10.90;;
18021;SDS011;9136;48.822;7.966;2023-07-29T12:22:31;10.98;;;10.48;;
18021;SDS011;9136;48.822;7.966;2023-07-29T12:25:59;12.20;;;11.52;;
18021;SDS011;9136;48.822;7.966;2023-07-29T12:29:29;11.52;;;11.02;;
18021;SDS011;9136;48.822;7.966;2023-07-29T13:11:07;10.90;;;10.45;;
18021;SDS011;9136;48.822;7.966;2023-07-29T14:04:13;10.82;;;10.32;;
18021;SDS011;9136;48.822;7.966;2023-07-29T20:46:48;17.65;;;16.85;;
18021;SDS011;9136;48.822;7.966;2023-07-29T20:49:42;17.17;;;16.38;;
18021;SDS011;9136;48.822;7.966;2023-07-29T20:52:42;20.27;;;19.27;;
18021;SDS011;9136;48.822;7.966;2023-07-29T21:10:21;18.35;;;17.45;;
18021;SDS011;9136;48.822;7.966;2023-07-29T21:13:10;16.95;;;16.25;;
18021;SDS011;9136;48.822;7.966;2023-07-29T21:15:59;21.55;;;20.30;;
18021;SDS011;9136;48.822;7.966;2023-07-29T21:18:47;18.67;;;17.88;;
18021;SDS011;9136;48.822;7.966;2023-07-29T21:21:35;18.50;;;17.60;;
18021;SDS011;9136;48.822;7.966;2023-07-29T21:24:24;17.45;;;16.65;;
18021;SDS011;9136;48.822;7.966;2023-07-29T21:27:13;18.98;;;17.98;;
18021;SDS011;9136;48.822;7.966;2023-07-29T21:30:01;17.33;;;16.52;;
18021;SDS011;9136;48.822;7.966;2023-07-29T21:32:49;17.27;;;16.38;;
18021;SDS011;9136;48.822;7.966;2023-07-29T21:35:37;17.77;;;16.95;;
18021;SDS011;9136;48.822;7.966;2023-07-29T21:38:25;18.48;;;17.58;;
18021;SDS011;9136;48.822;7.966;2023-07-29T21:41:13;19.10;;;18.20;;
18021;SDS011;9136;48.822;7.966;2023-07-29T21:44:03;18.38;;;17.55;;
18021;SDS011;9136;48.822;7.966;2023-07-29T21:46:53;18.73;;;17.92;;
18021;SDS011;9136;48.822;7.966;2023-07-29T21:49:41;18.70;;;17.90;;
18021;SDS011;9136;48.822;7.966;2023-07-29T21:52:30;18.17;;;17.38;;
18021;SDS011;9136;48.822;7.966;2023-07-29T21:55:18;17.48;;;16.60;;
18021;SDS011;9136;48.822;7.966;2023-07-29T21:58:13;16.95;;;16.25;;
18021;SDS011;9136;48.822;7.966;2023-07-29T22:01:02;16.92;;;16.23;;
18021;SDS011;9136;48.822;7.966;2023-07-29T22:03:52;17.77;;;16.98;;
18021;SDS011;9136;48.822;7.966;2023-07-29T22:06:39;16.38;;;15.68;;
18021;SDS011;9136;48.822;7.966;2023-07-29T22:09:28;16.88;;;16.08;;
18021;SDS011;9136;48.822;7.966;2023-07-29T22:12:29;16.92;;;16.23;;
18021;SDS011;9136;48.822;7.966;2023-07-29T22:15:35;17.83;;;17.03;;
18021;SDS011;9136;48.822;7.966;2023-07-29T22:21:45;17.63;;;16.83;;
18021;SDS011;9136;48.822;7.966;2023-07-29T22:25:57;17.10;;;16.30;;
18021;SDS011;9136;48.822;7.966;2023-07-29T22:28:47;17.40;;;16.65;;
18021;SDS011;9136;48.822;7.966;2023-07-29T22:32:08;17.30;;;16.50;;
18021;SDS011;9136;48.822;7.966;2023-07-29T22:39:19;17.63;;;16.83;;
18021;SDS011;9136;48.822;7.966;2023-07-29T22:46:24;18.17;;;17.38;;
18021;SDS011;9136;48.822;7.966;2023-07-29T23:16:26;18.80;;;17.90;;
18021;SDS011;9136;48.822;7.966;2023-07-29T23:19:14;17.55;;;16.77;;
18021;SDS011;9136;48.822;7.966;2023-07-29T23:22:03;18.05;;;17.20;;
18021;SDS011;9136;48.822;7.966;2023-07-29T23:24:54;17.30;;;16.50;;
18021;SDS011;9136;48.822;7.966;2023-07-29T23:27:43;18.08;;;17.23;;
18021;SDS011;9136;48.822;7.966;2023-07-29T23:30:43;16.70;;;16.00;;
18021;SDS011;9136;48.822;7.966;2023-07-29T23:33:56;17.52;;;16.63;;
18021;SDS011;9136;48.822;7.966;2023-07-29T23:36:53;17.02;;;16.33;;
18021;SDS011;9136;48.822;7.966;2023-07-29T23:40:08;17.02;;;16.33;;
18021;SDS011;9136;48.822;7.966;2023-07-29T23:43:17;17.08;;;16.27;;
18021;SDS011;9136;48.822;7.966;2023-07-29T23:46:43;18.30;;;17.50;;
18021;SDS011;9136;48.822;7.966;2023-07-29T23:49:46;17.55;;;16.75;;
18021;SDS011;9136;48.822;7.966;2023-07-29T23:52:53;19.05;;;18.25;;
18021;SDS011;9136;48.822;7.966;2023-07-29T23:56:01;18.55;;;17.75;;
18021;SDS011;9136;48.822;7.966;2023-07-29T23:59:33;18.02;;;16.73;;
